createdAt,value
2022-12-31T00:00:02.427Z,33
2022-12-31T00:01:09.874Z,28
2022-12-31T00:02:17.095Z,30
2022-12-31T00:03:24.337Z,33
2022-12-31T00:04:32.736Z,33
2022-12-31T00:05:40.797Z,32
2022-12-31T00:06:50.650Z,26
2022-12-31T00:07:59.288Z,29
2022-12-31T00:09:06.940Z,25
2022-12-31T00:10:14.642Z,28
2022-12-31T00:11:23.529Z,32
2022-12-31T00:12:31.115Z,36
2022-12-31T00:13:39.027Z,27
2022-12-31T00:14:47.804Z,38
2022-12-31T00:15:56.132Z,29
2022-12-31T00:17:09.137Z,36
2022-12-31T00:18:16.585Z,34
2022-12-31T00:19:24.833Z,39
2022-12-31T00:20:34.266Z,36
2022-12-31T00:21:45.489Z,30
2022-12-31T00:22:53.901Z,33
2022-12-31T00:24:02.930Z,32
2022-12-31T00:25:12.001Z,30
2022-12-31T00:26:20.614Z,31
2022-12-31T00:27:29.341Z,26
2022-12-31T00:28:36.475Z,26
2022-12-31T00:29:44.825Z,26
2022-12-31T00:30:51.942Z,26
2022-12-31T00:31:58.779Z,26
2022-12-31T00:33:05.608Z,157
2022-12-31T00:34:14.794Z,139
2022-12-31T00:35:22.043Z,127
2022-12-31T00:36:30.041Z,114
2022-12-31T00:37:39.486Z,92
2022-12-31T00:38:47.879Z,85
2022-12-31T00:39:55.168Z,88
2022-12-31T00:41:03.251Z,74
2022-12-31T00:42:11.338Z,75
2022-12-31T00:43:19.421Z,73
2022-12-31T00:44:27.876Z,71
2022-12-31T00:45:36.227Z,67
2022-12-31T00:47:50.188Z,49
2022-12-31T00:48:57.631Z,57
2022-12-31T00:50:04.513Z,55
2022-12-31T00:51:14.479Z,53
2022-12-31T00:52:23.594Z,48
2022-12-31T00:53:30.675Z,47
2022-12-31T00:54:38.612Z,47
2022-12-31T00:55:48.803Z,45
2022-12-31T00:56:56.052Z,41
2022-12-31T00:58:04.859Z,39
2022-12-31T00:59:14.120Z,38
2022-12-31T01:00:21.723Z,36
2022-12-31T01:01:29.401Z,38
2022-12-31T01:02:37.176Z,37
2022-12-31T01:03:43.808Z,35
2022-12-31T01:04:51.878Z,39
2022-12-31T01:06:00.118Z,34
2022-12-31T01:07:07.672Z,38
2022-12-31T01:08:14.937Z,30
2022-12-31T01:09:24.672Z,25
2022-12-31T01:10:31.512Z,29
2022-12-31T01:11:45.204Z,25
2022-12-31T01:12:54.154Z,34
2022-12-31T01:14:02.129Z,26
2022-12-31T01:15:16.938Z,31
2022-12-31T01:16:25.284Z,31
2022-12-31T01:17:36.652Z,26
2022-12-31T01:18:44.671Z,32
2022-12-31T01:19:54.772Z,32
2022-12-31T01:21:02.422Z,35
2022-12-31T01:22:09.860Z,29
2022-12-31T01:23:19.018Z,29
2022-12-31T01:24:26.831Z,28
2022-12-31T01:25:35.915Z,43
2022-12-31T01:26:45.100Z,35
2022-12-31T01:27:53.383Z,33
2022-12-31T01:29:01.739Z,25
2022-12-31T01:30:09.039Z,31
2022-12-31T01:31:17.591Z,29
2022-12-31T01:32:25.872Z,37
2022-12-31T01:33:33.393Z,38
2022-12-31T01:34:40.499Z,37
2022-12-31T01:35:48.212Z,39
2022-12-31T01:36:56.035Z,43
2022-12-31T01:38:05.147Z,39
2022-12-31T01:39:12.601Z,41
2022-12-31T01:40:19.568Z,48
2022-12-31T01:41:26.640Z,51
2022-12-31T01:42:33.769Z,54
2022-12-31T01:43:41.056Z,57
2022-12-31T01:44:52.060Z,54
2022-12-31T01:46:00.450Z,58
2022-12-31T01:47:07.417Z,62
2022-12-31T01:48:17.784Z,62
2022-12-31T01:49:26.401Z,67
2022-12-31T01:50:40.963Z,80
2022-12-31T01:51:49.317Z,78
2022-12-31T01:53:01.456Z,84
2022-12-31T01:54:09.664Z,83
2022-12-31T01:55:18.076Z,81
2022-12-31T01:56:25.466Z,86
2022-12-31T01:57:35.012Z,95
2022-12-31T01:58:42.946Z,92
2022-12-31T01:59:52.297Z,88
2022-12-31T02:01:00.298Z,92
2022-12-31T02:02:07.811Z,90
2022-12-31T02:03:16.846Z,96
2022-12-31T02:04:24.675Z,97
2022-12-31T02:05:33.619Z,96
2022-12-31T02:06:42.036Z,93
2022-12-31T02:07:55.484Z,89
2022-12-31T02:09:04.731Z,94
2022-12-31T02:10:13.823Z,94
2022-12-31T02:11:20.966Z,93
2022-12-31T02:12:32.527Z,90
2022-12-31T02:13:41.215Z,92
2022-12-31T02:14:49.188Z,100
2022-12-31T02:15:58.701Z,95
2022-12-31T02:17:14.759Z,98
2022-12-31T02:18:34.272Z,96
2022-12-31T02:19:46.483Z,98
2022-12-31T02:20:59.311Z,96
2022-12-31T02:22:17.351Z,101
2022-12-31T02:23:35.985Z,96
2022-12-31T02:24:48.812Z,95
2022-12-31T02:26:02.673Z,94
2022-12-31T02:27:18.989Z,103
2022-12-31T02:28:39.892Z,103
2022-12-31T02:29:54.101Z,96
2022-12-31T02:31:10.233Z,98
2022-12-31T02:32:23.058Z,96
2022-12-31T02:33:36.893Z,101
2022-12-31T02:34:49.420Z,99
2022-12-31T02:35:57.096Z,99
2022-12-31T02:37:04.542Z,96
2022-12-31T02:38:12.986Z,90
2022-12-31T02:39:26.274Z,94
2022-12-31T02:40:34.547Z,100
2022-12-31T02:41:41.915Z,89
2022-12-31T02:42:55.654Z,90
2022-12-31T02:44:04.499Z,87
2022-12-31T02:45:23.637Z,87
2022-12-31T02:46:32.157Z,84
2022-12-31T02:47:40.119Z,78
2022-12-31T02:48:58.188Z,82
2022-12-31T02:50:09.247Z,85
2022-12-31T02:51:24.665Z,77
2022-12-31T02:52:35.323Z,77
2022-12-31T02:53:53.895Z,82
2022-12-31T02:55:07.977Z,80
2022-12-31T02:56:26.243Z,80
2022-12-31T02:57:39.958Z,80
2022-12-31T02:58:53.327Z,77
2022-12-31T03:00:06.087Z,83
2022-12-31T03:01:19.432Z,81
2022-12-31T03:02:32.293Z,72
2022-12-31T03:03:43.922Z,75
2022-12-31T03:04:52.745Z,70
2022-12-31T03:06:01.786Z,80
2022-12-31T03:07:11.231Z,75
2022-12-31T03:08:19.687Z,91
2022-12-31T03:09:32.189Z,82
2022-12-31T03:10:42.083Z,82
2022-12-31T03:11:50.786Z,90
2022-12-31T03:13:04.189Z,93
2022-12-31T03:14:12.057Z,89
2022-12-31T03:15:20.372Z,90
2022-12-31T03:16:27.680Z,97
2022-12-31T03:17:36.878Z,102
2022-12-31T03:18:45.160Z,101
2022-12-31T03:19:57.752Z,106
2022-12-31T03:21:11.471Z,105
2022-12-31T03:22:26.367Z,107
2022-12-31T03:23:34.440Z,109
2022-12-31T03:24:47.492Z,109
2022-12-31T03:26:04.390Z,106
2022-12-31T03:27:14.763Z,112
2022-12-31T03:28:22.095Z,106
2022-12-31T03:29:29.915Z,112
2022-12-31T03:30:37.054Z,107
2022-12-31T03:31:44.842Z,98
2022-12-31T03:32:52.129Z,107
2022-12-31T03:33:59.938Z,95
2022-12-31T03:35:07.907Z,100
2022-12-31T03:36:15.239Z,98
2022-12-31T03:37:23.585Z,101
2022-12-31T03:38:31.853Z,89
2022-12-31T03:39:39.783Z,92
2022-12-31T03:40:48.294Z,99
2022-12-31T03:41:55.354Z,95
2022-12-31T03:43:02.714Z,95
2022-12-31T03:44:11.691Z,96
2022-12-31T03:45:20.924Z,95
2022-12-31T03:46:29.903Z,101
2022-12-31T03:47:38.008Z,94
2022-12-31T03:48:46.922Z,93
2022-12-31T03:49:56.396Z,89
2022-12-31T03:51:03.252Z,88
2022-12-31T03:52:11.392Z,80
2022-12-31T03:53:19.129Z,86
2022-12-31T03:54:26.527Z,86
2022-12-31T03:55:34.564Z,77
2022-12-31T03:56:44.681Z,89
2022-12-31T03:57:53.211Z,87
2022-12-31T03:59:00.464Z,80
2022-12-31T04:00:08.405Z,79
2022-12-31T04:01:19.304Z,85
2022-12-31T04:02:29.118Z,84
2022-12-31T04:03:35.058Z,81
2022-12-31T04:04:42.895Z,83
2022-12-31T04:05:51.303Z,82
2022-12-31T04:06:59.215Z,77
2022-12-31T04:08:07.474Z,81
2022-12-31T04:09:15.527Z,73
2022-12-31T04:10:22.917Z,74
2022-12-31T04:11:30.708Z,74
2022-12-31T04:12:38.836Z,80
2022-12-31T04:13:46.416Z,75
2022-12-31T04:14:54.736Z,79
2022-12-31T04:16:02.378Z,73
2022-12-31T04:17:10.627Z,85
2022-12-31T04:18:19.740Z,83
2022-12-31T04:19:28.019Z,80
2022-12-31T04:20:36.602Z,77
2022-12-31T04:21:45.906Z,76
2022-12-31T04:22:53.992Z,73
2022-12-31T04:24:03.324Z,74
2022-12-31T04:25:11.586Z,66
2022-12-31T04:26:19.063Z,72
2022-12-31T04:27:26.821Z,73
2022-12-31T04:28:34.106Z,60
2022-12-31T04:29:42.239Z,65
2022-12-31T04:30:49.673Z,68
2022-12-31T04:31:57.846Z,63
2022-12-31T04:33:05.783Z,69
2022-12-31T04:34:13.130Z,69
2022-12-31T04:35:21.084Z,67
2022-12-31T04:36:29.398Z,62
2022-12-31T04:37:37.157Z,57
2022-12-31T04:38:45.670Z,60
2022-12-31T04:39:52.471Z,58
2022-12-31T04:41:01.506Z,56
2022-12-31T04:42:14.313Z,57
2022-12-31T04:43:21.788Z,56
2022-12-31T04:44:29.072Z,65
2022-12-31T04:45:37.006Z,59
2022-12-31T04:46:45.546Z,61
2022-12-31T04:47:53.846Z,64
2022-12-31T04:49:01.720Z,53
2022-12-31T04:50:10.575Z,60
2022-12-31T04:51:19.155Z,66
2022-12-31T04:52:26.497Z,51
2022-12-31T04:53:33.856Z,62
2022-12-31T04:54:40.959Z,58
2022-12-31T04:55:48.262Z,61
2022-12-31T04:56:56.147Z,60
2022-12-31T04:58:04.666Z,60
2022-12-31T04:59:12.180Z,64
2022-12-31T05:00:20.457Z,66
2022-12-31T05:01:27.672Z,64
2022-12-31T05:02:35.357Z,66
2022-12-31T05:03:43.204Z,71
2022-12-31T05:04:51.612Z,79
2022-12-31T05:06:00.372Z,75
2022-12-31T05:07:08.312Z,80
2022-12-31T05:08:15.755Z,83
2022-12-31T05:09:23.176Z,88
2022-12-31T05:10:33.944Z,82
2022-12-31T05:11:41.645Z,84
2022-12-31T05:12:49.375Z,93
2022-12-31T05:13:58.216Z,89
2022-12-31T05:15:06.938Z,92
2022-12-31T05:16:14.513Z,88
2022-12-31T05:17:21.769Z,93
2022-12-31T05:18:30.800Z,95
2022-12-31T05:19:39.251Z,90
2022-12-31T05:20:46.536Z,94
2022-12-31T05:21:53.456Z,95
2022-12-31T05:23:07.128Z,96
2022-12-31T05:24:14.639Z,91
2022-12-31T05:25:23.391Z,90
2022-12-31T05:26:31.844Z,95
2022-12-31T05:27:40.235Z,96
2022-12-31T05:28:48.065Z,91
2022-12-31T05:29:56.295Z,90
2022-12-31T05:31:05.045Z,97
2022-12-31T05:32:12.685Z,98
2022-12-31T05:33:22.168Z,93
2022-12-31T05:34:30.132Z,98
2022-12-31T05:35:39.192Z,89
2022-12-31T05:36:46.416Z,97
2022-12-31T05:37:54.359Z,102
2022-12-31T05:39:02.783Z,95
2022-12-31T05:40:11.892Z,98
2022-12-31T05:41:18.883Z,99
2022-12-31T05:42:27.100Z,97
2022-12-31T05:43:36.647Z,99
2022-12-31T05:44:45.085Z,98
2022-12-31T05:45:54.008Z,97
2022-12-31T05:47:03.509Z,96
2022-12-31T05:48:11.685Z,101
2022-12-31T05:49:20.254Z,97
2022-12-31T05:50:27.730Z,99
2022-12-31T05:51:34.611Z,103
2022-12-31T05:52:47.236Z,101
2022-12-31T05:53:50.833Z,100
2022-12-31T05:54:59.279Z,105
2022-12-31T05:56:06.750Z,108
2022-12-31T05:57:14.832Z,96
2022-12-31T05:58:23.842Z,102
2022-12-31T05:59:31.449Z,109
2022-12-31T06:00:38.688Z,110
2022-12-31T06:01:47.069Z,108
2022-12-31T06:02:54.149Z,113
2022-12-31T06:04:02.639Z,106
2022-12-31T06:05:10.071Z,107
2022-12-31T06:06:18.263Z,107
2022-12-31T06:07:26.183Z,109
2022-12-31T06:08:33.763Z,109
2022-12-31T06:09:41.659Z,109
2022-12-31T06:10:50.814Z,110
2022-12-31T06:11:57.963Z,112
2022-12-31T06:13:05.475Z,111
2022-12-31T06:14:13.972Z,109
2022-12-31T06:15:21.775Z,122
2022-12-31T06:16:29.008Z,107
2022-12-31T06:17:36.292Z,123
2022-12-31T06:18:44.127Z,118
2022-12-31T06:19:51.518Z,116
2022-12-31T06:20:58.711Z,115
2022-12-31T06:22:06.122Z,115
2022-12-31T06:23:14.163Z,118
2022-12-31T06:24:21.677Z,117
2022-12-31T06:25:29.555Z,120
2022-12-31T06:26:38.133Z,123
2022-12-31T06:27:45.611Z,123
2022-12-31T06:28:53.747Z,123
2022-12-31T06:30:01.328Z,116
2022-12-31T06:31:09.642Z,117
2022-12-31T06:32:20.227Z,119
2022-12-31T06:33:27.336Z,122
2022-12-31T06:34:35.236Z,120
2022-12-31T06:35:43.213Z,124
2022-12-31T06:36:50.900Z,116
2022-12-31T06:37:58.083Z,119
2022-12-31T06:39:07.265Z,122
2022-12-31T06:40:15.136Z,121
2022-12-31T06:41:23.596Z,118
2022-12-31T06:42:30.701Z,117
2022-12-31T06:43:37.763Z,122
2022-12-31T06:44:46.457Z,124
2022-12-31T06:45:54.007Z,117
2022-12-31T06:47:03.023Z,124
2022-12-31T06:48:10.806Z,125
2022-12-31T06:49:17.974Z,111
2022-12-31T06:50:27.673Z,126
2022-12-31T06:51:36.364Z,118
2022-12-31T06:52:44.936Z,124
2022-12-31T06:53:54.223Z,118
2022-12-31T06:55:03.345Z,122
2022-12-31T06:56:11.981Z,121
2022-12-31T06:57:25.692Z,128
2022-12-31T06:58:33.667Z,131
2022-12-31T06:59:41.393Z,123
2022-12-31T07:00:48.639Z,130
2022-12-31T07:02:02.632Z,128
2022-12-31T07:03:21.178Z,124
2022-12-31T07:04:33.677Z,119
2022-12-31T07:05:51.867Z,122
2022-12-31T07:07:08.588Z,121
2022-12-31T07:08:21.378Z,120
2022-12-31T07:09:28.698Z,115
2022-12-31T07:10:44.926Z,117
2022-12-31T07:12:01.976Z,122
2022-12-31T07:13:20.049Z,112
2022-12-31T07:14:32.379Z,113
2022-12-31T07:15:48.587Z,118
2022-12-31T07:17:06.744Z,115
2022-12-31T07:18:22.236Z,114
2022-12-31T07:19:37.605Z,117
2022-12-31T07:20:50.128Z,110
2022-12-31T07:21:58.151Z,114
2022-12-31T07:23:05.191Z,107
2022-12-31T07:24:14.087Z,111
2022-12-31T07:25:22.709Z,105
2022-12-31T07:26:30.579Z,105
2022-12-31T07:27:49.836Z,99
2022-12-31T07:29:02.311Z,97
2022-12-31T07:30:11.409Z,97
2022-12-31T07:31:22.141Z,93
2022-12-31T07:32:31.179Z,93
2022-12-31T07:33:46.090Z,91
2022-12-31T07:35:02.287Z,95
2022-12-31T07:36:13.615Z,85
2022-12-31T07:37:26.221Z,88
2022-12-31T07:38:42.956Z,85
2022-12-31T07:40:01.005Z,84
2022-12-31T07:41:20.316Z,81
2022-12-31T07:42:34.693Z,84
2022-12-31T07:43:52.608Z,79
2022-12-31T07:45:11.033Z,76
2022-12-31T07:46:24.130Z,71
2022-12-31T07:47:37.404Z,70
2022-12-31T07:48:45.885Z,68
2022-12-31T07:49:54.104Z,67
2022-12-31T07:51:01.332Z,63
2022-12-31T07:52:09.179Z,59
2022-12-31T07:53:16.806Z,62
2022-12-31T07:54:25.482Z,64
2022-12-31T07:55:32.643Z,57
2022-12-31T07:56:39.883Z,60
2022-12-31T07:57:47.139Z,58
2022-12-31T07:58:57.363Z,49
2022-12-31T08:00:05.473Z,51
2022-12-31T08:01:14.853Z,47
2022-12-31T08:02:22.246Z,44
2022-12-31T08:03:38.686Z,44
2022-12-31T08:04:56.531Z,46
2022-12-31T08:06:13.237Z,35
2022-12-31T08:07:29.180Z,36
2022-12-31T08:08:42.437Z,33
2022-12-31T08:09:57.454Z,33
2022-12-31T08:11:11.406Z,44
2022-12-31T08:12:27.143Z,31
2022-12-31T08:13:35.450Z,25
2022-12-31T08:14:42.824Z,31
2022-12-31T08:15:52.478Z,45
2022-12-31T08:17:01.871Z,39
2022-12-31T08:18:09.636Z,41
2022-12-31T08:19:17.182Z,29
2022-12-31T08:20:36.043Z,44
2022-12-31T08:21:45.139Z,25
2022-12-31T08:22:58.582Z,33
2022-12-31T08:24:08.355Z,27
2022-12-31T08:25:20.402Z,34
2022-12-31T08:26:28.884Z,36
2022-12-31T08:27:41.587Z,38
2022-12-31T08:28:54.130Z,34
2022-12-31T08:30:12.671Z,37
2022-12-31T08:31:25.578Z,31
2022-12-31T08:32:38.207Z,29
2022-12-31T08:33:54.245Z,38
2022-12-31T08:35:12.095Z,44
2022-12-31T08:36:24.181Z,28
2022-12-31T08:37:36.898Z,29
2022-12-31T08:38:45.127Z,48
2022-12-31T08:40:01.254Z,45
2022-12-31T08:41:16.400Z,28
2022-12-31T08:42:34.067Z,47
2022-12-31T08:43:47.082Z,31
2022-12-31T08:44:59.739Z,50
2022-12-31T08:46:06.916Z,47
2022-12-31T08:47:19.285Z,42
2022-12-31T08:48:37.607Z,37
2022-12-31T08:49:45.363Z,37
2022-12-31T08:50:53.094Z,32
2022-12-31T08:52:01.402Z,40
2022-12-31T08:53:08.613Z,43
2022-12-31T08:54:16.519Z,39
2022-12-31T08:55:23.746Z,35
2022-12-31T08:56:31.345Z,37
2022-12-31T08:57:39.544Z,38
2022-12-31T08:58:51.780Z,40
2022-12-31T09:00:09.386Z,41
2022-12-31T09:01:19.762Z,35
2022-12-31T09:02:27.842Z,37
2022-12-31T09:03:46.114Z,36
2022-12-31T09:04:59.335Z,36
2022-12-31T09:06:17.080Z,35
2022-12-31T09:07:25.692Z,41
2022-12-31T09:08:40.669Z,40
2022-12-31T09:09:48.095Z,38
2022-12-31T09:11:02.755Z,30
2022-12-31T09:12:14.290Z,41
2022-12-31T09:13:25.353Z,36
2022-12-31T09:14:38.739Z,36
2022-12-31T09:15:51.115Z,34
2022-12-31T09:17:05.183Z,43
2022-12-31T09:18:17.696Z,35
2022-12-31T09:19:25.947Z,34
2022-12-31T09:20:44.021Z,36
2022-12-31T09:21:43.726Z,30
2022-12-31T09:22:52.130Z,32
2022-12-31T09:24:01.884Z,25
2022-12-31T09:25:07.139Z,33
2022-12-31T09:26:16.808Z,27
2022-12-31T09:27:34.546Z,32
2022-12-31T09:28:48.205Z,27
2022-12-31T09:30:00.550Z,26
2022-12-31T09:31:12.706Z,28
2022-12-31T09:32:23.784Z,35
2022-12-31T09:33:42.246Z,34
2022-12-31T09:34:55.903Z,34
2022-12-31T09:36:11.123Z,28
2022-12-31T09:37:20.160Z,30
2022-12-31T09:38:38.651Z,34
2022-12-31T09:39:52.798Z,34
2022-12-31T09:41:00.367Z,34
2022-12-31T09:42:15.656Z,32
2022-12-31T09:43:28.906Z,26
2022-12-31T09:44:47.399Z,29
2022-12-31T09:46:03.846Z,29
2022-12-31T09:47:21.210Z,36
2022-12-31T09:48:38.718Z,34
2022-12-31T09:49:56.310Z,30
2022-12-31T09:51:08.331Z,28
2022-12-31T09:52:26.357Z,28
2022-12-31T09:53:46.127Z,25
2022-12-31T09:54:55.065Z,35
2022-12-31T09:56:02.719Z,28
2022-12-31T09:57:11.601Z,32
2022-12-31T09:58:29.576Z,31
2022-12-31T09:59:42.067Z,32
2022-12-31T10:00:58.001Z,26
2022-12-31T10:02:06.106Z,27
2022-12-31T10:03:16.550Z,25
2022-12-31T10:04:28.871Z,29
2022-12-31T10:05:44.291Z,33
2022-12-31T10:07:00.034Z,25
2022-12-31T10:08:16.133Z,25
2022-12-31T10:09:28.580Z,38
2022-12-31T10:10:42.719Z,32
2022-12-31T10:11:49.977Z,29
2022-12-31T10:13:06.107Z,30
2022-12-31T10:14:15.926Z,37
2022-12-31T10:15:31.800Z,43
2022-12-31T10:16:46.782Z,29
2022-12-31T10:18:04.396Z,27
2022-12-31T10:19:21.191Z,28
2022-12-31T10:20:45.034Z,25
2022-12-31T10:21:57.191Z,25
2022-12-31T10:23:16.226Z,25
2022-12-31T10:24:24.565Z,25
2022-12-31T10:25:42.833Z,29
2022-12-31T10:26:57.179Z,34
2022-12-31T10:28:12.334Z,25
2022-12-31T10:29:27.579Z,25
2022-12-31T10:30:43.203Z,32
2022-12-31T10:31:53.727Z,26
2022-12-31T10:33:06.620Z,29
2022-12-31T10:34:23.262Z,34
2022-12-31T10:35:36.627Z,39
2022-12-31T10:36:49.246Z,37
2022-12-31T10:37:57.509Z,39
2022-12-31T10:39:14.325Z,41
2022-12-31T10:40:26.505Z,37
2022-12-31T10:41:36.643Z,47
2022-12-31T10:42:57.318Z,41
2022-12-31T10:44:13.030Z,49
2022-12-31T10:45:31.771Z,46
2022-12-31T10:46:49.538Z,47
2022-12-31T10:48:07.159Z,52
2022-12-31T10:49:24.899Z,42
2022-12-31T10:50:42.307Z,45
2022-12-31T10:52:00.431Z,50
2022-12-31T10:53:17.351Z,42
2022-12-31T10:54:32.784Z,36
2022-12-31T10:55:49.979Z,43
2022-12-31T10:57:00.475Z,37
2022-12-31T10:58:14.156Z,35
2022-12-31T10:59:31.063Z,39
2022-12-31T11:00:47.794Z,36
2022-12-31T11:02:05.958Z,34
2022-12-31T11:03:28.950Z,35
2022-12-31T11:04:42.029Z,34
2022-12-31T11:05:52.297Z,31
2022-12-31T11:07:10.858Z,38
2022-12-31T11:08:23.890Z,32
2022-12-31T11:09:37.420Z,25
2022-12-31T11:10:55.495Z,37
2022-12-31T11:12:09.673Z,37
2022-12-31T11:13:29.487Z,33
2022-12-31T11:14:42.090Z,28
2022-12-31T11:15:54.496Z,28
2022-12-31T11:17:09.622Z,37
2022-12-31T11:18:20.822Z,38
2022-12-31T11:19:33.322Z,31
2022-12-31T11:20:48.982Z,35
2022-12-31T11:22:01.994Z,35
2022-12-31T11:23:15.621Z,45
2022-12-31T11:24:33.083Z,40
2022-12-31T11:25:47.678Z,41
2022-12-31T11:27:06.793Z,47
2022-12-31T11:28:18.378Z,42
2022-12-31T11:29:30.555Z,43
2022-12-31T11:30:47.626Z,43
2022-12-31T11:32:01.403Z,54
2022-12-31T11:33:11.889Z,50
2022-12-31T11:34:26.336Z,47
2022-12-31T11:35:39.247Z,48
2022-12-31T11:36:56.481Z,44
2022-12-31T11:38:11.553Z,53
2022-12-31T11:39:24.667Z,55
2022-12-31T11:40:38.415Z,53
2022-12-31T11:41:54.590Z,51
2022-12-31T11:43:07.778Z,52
2022-12-31T11:44:14.855Z,48
2022-12-31T11:45:23.125Z,45
2022-12-31T11:46:35.469Z,55
2022-12-31T11:48:20.445Z,48
2022-12-31T11:49:00.570Z,48
2022-12-31T11:50:17.383Z,44
2022-12-31T11:51:30.151Z,52
2022-12-31T11:52:45.465Z,52
2022-12-31T11:53:56.279Z,53
2022-12-31T11:55:14.045Z,58
2022-12-31T11:56:29.987Z,53
2022-12-31T11:57:40.165Z,52
2022-12-31T11:58:47.897Z,53
2022-12-31T11:59:55.436Z,55
2022-12-31T12:01:06.168Z,60
2022-12-31T12:02:14.390Z,57
2022-12-31T12:03:24.889Z,53
2022-12-31T12:04:34.313Z,64
2022-12-31T12:05:43.340Z,64
2022-12-31T12:06:53.288Z,63
2022-12-31T12:08:01.907Z,62
2022-12-31T12:09:09.777Z,65
2022-12-31T12:10:20.663Z,60
2022-12-31T12:11:33.738Z,62
2022-12-31T12:12:44.629Z,62
2022-12-31T12:13:53.107Z,66
2022-12-31T12:15:01.420Z,66
2022-12-31T12:16:08.917Z,72
2022-12-31T12:17:16.042Z,74
2022-12-31T12:18:28.172Z,68
2022-12-31T12:19:40.126Z,69
2022-12-31T12:20:47.875Z,72
2022-12-31T12:21:56.025Z,73
2022-12-31T12:23:04.437Z,73
2022-12-31T12:24:16.848Z,78
2022-12-31T12:25:25.235Z,73
2022-12-31T12:26:38.227Z,67
2022-12-31T12:27:48.233Z,79
2022-12-31T12:28:56.140Z,74
2022-12-31T12:30:04.588Z,76
2022-12-31T12:31:17.060Z,75
2022-12-31T12:32:24.590Z,75
2022-12-31T12:33:31.701Z,90
2022-12-31T12:34:49.770Z,93
2022-12-31T12:35:54.468Z,86
2022-12-31T12:37:09.525Z,81
2022-12-31T12:38:21.930Z,84
2022-12-31T12:39:28.749Z,83
2022-12-31T12:40:36.080Z,86
2022-12-31T12:41:43.843Z,85
2022-12-31T12:42:54.319Z,88
2022-12-31T12:44:01.694Z,83
2022-12-31T12:45:09.007Z,81
2022-12-31T12:46:20.951Z,82
2022-12-31T12:47:36.031Z,79
2022-12-31T12:48:43.286Z,76
2022-12-31T12:49:50.329Z,77
2022-12-31T12:50:57.468Z,84
2022-12-31T12:52:06.223Z,80
2022-12-31T12:53:23.889Z,88
2022-12-31T12:54:30.950Z,82
2022-12-31T12:55:43.860Z,78
2022-12-31T12:57:02.792Z,81
2022-12-31T12:58:19.237Z,81
2022-12-31T12:59:36.888Z,72
2022-12-31T13:00:55.375Z,79
2022-12-31T13:02:08.112Z,77
2022-12-31T13:03:25.337Z,75
2022-12-31T13:04:42.696Z,74
2022-12-31T13:05:53.645Z,72
2022-12-31T13:07:01.913Z,72
2022-12-31T13:08:14.172Z,72
2022-12-31T13:09:34.436Z,78
2022-12-31T13:10:46.703Z,75
2022-12-31T13:12:07.678Z,70
2022-12-31T13:13:24.107Z,67
2022-12-31T13:14:32.304Z,68
2022-12-31T13:15:45.044Z,75
2022-12-31T13:16:57.420Z,74
2022-12-31T13:18:10.348Z,70
2022-12-31T13:19:18.143Z,71
2022-12-31T13:20:30.684Z,66
2022-12-31T13:21:49.410Z,75
2022-12-31T13:22:59.715Z,75
2022-12-31T13:24:06.516Z,77
2022-12-31T13:25:24.473Z,70
2022-12-31T13:26:37.314Z,76
2022-12-31T13:27:55.197Z,78
2022-12-31T13:29:03.601Z,78
2022-12-31T13:30:10.595Z,74
2022-12-31T13:31:23.240Z,80
2022-12-31T13:32:30.873Z,87
2022-12-31T13:33:38.664Z,75
2022-12-31T13:34:48.693Z,76
2022-12-31T13:35:57.728Z,87
2022-12-31T13:37:08.270Z,83
2022-12-31T13:38:22.929Z,79
2022-12-31T13:39:31.222Z,84
2022-12-31T13:40:38.356Z,81
2022-12-31T13:41:52.460Z,89
2022-12-31T13:43:08.386Z,91
2022-12-31T13:44:24.522Z,89
2022-12-31T13:45:36.696Z,91
2022-12-31T13:46:45.796Z,87
2022-12-31T13:47:56.193Z,91
2022-12-31T13:49:06.811Z,95
2022-12-31T13:50:15.184Z,90
2022-12-31T13:51:34.197Z,91
2022-12-31T13:52:44.453Z,90
2022-12-31T13:53:58.161Z,87
2022-12-31T13:55:13.426Z,95
2022-12-31T13:56:31.619Z,89
2022-12-31T13:57:40.330Z,97
2022-12-31T13:58:55.420Z,93
2022-12-31T14:00:06.983Z,99
2022-12-31T14:01:23.104Z,100
2022-12-31T14:02:41.375Z,91
2022-12-31T14:03:57.107Z,98
2022-12-31T14:05:11.927Z,98
2022-12-31T14:06:22.035Z,101
2022-12-31T14:07:45.489Z,93
2022-12-31T14:08:51.288Z,92
2022-12-31T14:10:00.006Z,90
2022-12-31T14:11:08.986Z,102
2022-12-31T14:12:22.042Z,93
2022-12-31T14:13:39.093Z,101
2022-12-31T14:14:51.560Z,100
2022-12-31T14:16:04.245Z,102
2022-12-31T14:17:17.273Z,105
2022-12-31T14:18:32.321Z,97
2022-12-31T14:19:41.392Z,98
2022-12-31T14:20:50.748Z,104
2022-12-31T14:22:07.084Z,102
2022-12-31T14:23:23.877Z,107
2022-12-31T14:24:40.060Z,110
2022-12-31T14:25:49.969Z,109
2022-12-31T14:27:01.698Z,115
2022-12-31T14:28:08.565Z,108
2022-12-31T14:29:16.251Z,113
2022-12-31T14:30:26.961Z,110
2022-12-31T14:31:34.252Z,117
2022-12-31T14:32:53.411Z,108
2022-12-31T14:34:07.480Z,116
2022-12-31T14:35:22.585Z,110
2022-12-31T14:36:39.793Z,116
2022-12-31T14:37:59.837Z,110
2022-12-31T14:39:07.540Z,110
2022-12-31T14:40:19.769Z,111
2022-12-31T14:41:33.051Z,117
2022-12-31T14:42:46.574Z,115
2022-12-31T14:44:06.097Z,112
2022-12-31T14:45:23.544Z,113
2022-12-31T14:46:35.784Z,110
2022-12-31T14:47:43.568Z,112
2022-12-31T14:48:52.028Z,110
2022-12-31T14:50:07.307Z,111
2022-12-31T14:51:19.578Z,111
2022-12-31T14:52:28.593Z,110
2022-12-31T14:53:36.205Z,109
2022-12-31T14:54:43.980Z,112
2022-12-31T14:55:51.541Z,109
2022-12-31T14:57:02.145Z,109
2022-12-31T14:58:27.484Z,105
2022-12-31T14:59:29.308Z,98
2022-12-31T15:00:36.565Z,101
2022-12-31T15:01:45.932Z,97
2022-12-31T15:02:55.532Z,98
2022-12-31T15:04:06.756Z,90
2022-12-31T15:05:14.063Z,90
2022-12-31T15:06:20.986Z,88
2022-12-31T15:07:28.279Z,84
2022-12-31T15:08:38.279Z,84
2022-12-31T15:09:55.955Z,76
2022-12-31T15:11:13.401Z,73
2022-12-31T15:12:31.395Z,81
2022-12-31T15:13:44.060Z,69
2022-12-31T15:15:01.975Z,61
2022-12-31T15:16:12.931Z,64
2022-12-31T15:17:28.712Z,63
2022-12-31T15:18:44.005Z,66
2022-12-31T15:20:00.489Z,69
2022-12-31T15:21:13.073Z,69
2022-12-31T15:22:30.674Z,58
2022-12-31T15:23:41.263Z,62
2022-12-31T15:24:48.604Z,64
2022-12-31T15:25:56.064Z,64
2022-12-31T15:27:03.913Z,61
2022-12-31T15:28:12.089Z,63
2022-12-31T15:29:26.056Z,68
2022-12-31T15:30:37.617Z,64
2022-12-31T15:31:47.596Z,66
2022-12-31T15:32:54.931Z,66
2022-12-31T15:34:03.204Z,62
2022-12-31T15:35:11.559Z,67
2022-12-31T15:36:26.200Z,65
2022-12-31T15:37:34.856Z,67
2022-12-31T15:38:42.118Z,73
2022-12-31T15:39:49.828Z,73
2022-12-31T15:40:56.560Z,71
2022-12-31T15:43:22.773Z,61
2022-12-31T15:44:35.662Z,67
2022-12-31T15:45:49.093Z,60
2022-12-31T15:46:58.095Z,63
2022-12-31T15:48:08.480Z,62
2022-12-31T15:49:24.619Z,64
2022-12-31T15:50:32.989Z,65
2022-12-31T15:51:40.232Z,68
2022-12-31T15:52:50.200Z,68
2022-12-31T15:54:03.363Z,65
2022-12-31T15:55:11.294Z,61
2022-12-31T15:56:23.156Z,72
2022-12-31T15:57:40.407Z,64
2022-12-31T15:58:47.515Z,61
2022-12-31T15:59:56.563Z,69
2022-12-31T16:01:05.581Z,73
2022-12-31T16:02:23.780Z,74
2022-12-31T16:03:30.906Z,71
2022-12-31T16:04:38.707Z,70
2022-12-31T16:05:46.489Z,66
2022-12-31T16:06:57.532Z,69
2022-12-31T16:08:06.153Z,73
2022-12-31T16:09:13.432Z,73
2022-12-31T16:10:26.295Z,61
2022-12-31T16:11:33.325Z,66
2022-12-31T16:12:44.513Z,76
2022-12-31T16:13:48.987Z,69
2022-12-31T16:14:56.130Z,67
2022-12-31T16:16:04.489Z,67
2022-12-31T16:17:12.033Z,65
2022-12-31T16:18:23.462Z,68
2022-12-31T16:19:30.343Z,68
2022-12-31T16:20:40.258Z,65
2022-12-31T16:21:47.099Z,75
2022-12-31T16:22:55.322Z,71
2022-12-31T16:24:02.588Z,66
2022-12-31T16:25:31.849Z,80
2022-12-31T16:26:22.691Z,73
2022-12-31T16:27:35.071Z,75
2022-12-31T16:28:43.303Z,71
2022-12-31T16:29:56.054Z,77
2022-12-31T16:31:06.999Z,72
2022-12-31T16:32:16.654Z,78
2022-12-31T16:33:24.019Z,81
2022-12-31T16:34:31.059Z,70
2022-12-31T16:35:38.454Z,80
2022-12-31T16:36:46.078Z,77
2022-12-31T16:38:01.109Z,73
2022-12-31T16:39:11.139Z,75
2022-12-31T16:40:27.283Z,72
2022-12-31T16:41:35.154Z,66
2022-12-31T16:42:46.778Z,68
2022-12-31T16:43:54.655Z,69
2022-12-31T16:45:02.524Z,70
2022-12-31T16:46:11.765Z,70